sensor_id;sensor_type;location;lat;lon;timestamp;pressure;altitude;pressure_sealevel;temperature
26158;BMP280;67284;44.782;10.282;2023-06-10T00:02:12;100619.44;;;20.92
26158;BMP280;67284;44.782;10.282;2023-06-10T00:07:04;100617.91;;;20.88
26158;BMP280;67284;44.782;10.282;2023-06-10T00:12:00;100614.50;;;20.86
26158;BMP280;67284;44.782;10.282;2023-06-10T00:16:52;100611.13;;;20.84
26158;BMP280;67284;44.782;10.282;2023-06-10T00:21:44;100613.84;;;20.82
26158;BMP280;67284;44.782;10.282;2023-06-10T00:26:36;100598.31;;;20.79
26158;BMP280;67284;44.782;10.282;2023-06-10T00:31:28;100607.81;;;20.80
26158;BMP280;67284;44.782;10.282;2023-06-10T00:36:20;100597.44;;;20.79
26158;BMP280;67284;44.782;10.282;2023-06-10T00:41:13;100608.94;;;20.76
26158;BMP280;67284;44.782;10.282;2023-06-10T00:46:05;100593.28;;;20.75
26158;BMP280;67284;44.782;10.282;2023-06-10T00:50:58;100596.06;;;20.72
26158;BMP280;67284;44.782;10.282;2023-06-10T00:55:51;100600.59;;;20.68
26158;BMP280;67284;44.782;10.282;2023-06-10T01:00:43;100592.75;;;20.68
26158;BMP280;67284;44.782;10.282;2023-06-10T01:05:37;100597.19;;;20.66
26158;BMP280;67284;44.782;10.282;2023-06-10T01:10:36;100602.59;;;20.63
26158;BMP280;67284;44.782;10.282;2023-06-10T01:15:30;100600.94;;;20.62
26158;BMP280;67284;44.782;10.282;2023-06-10T01:20:22;100595.00;;;20.59
26158;BMP280;67284;44.782;10.282;2023-06-10T01:25:15;100595.16;;;20.56
26158;BMP280;67284;44.782;10.282;2023-06-10T01:30:19;100590.94;;;20.53
26158;BMP280;67284;44.782;10.282;2023-06-10T01:35:15;100579.81;;;20.50
26158;BMP280;67284;44.782;10.282;2023-06-10T01:40:08;100583.41;;;20.47
26158;BMP280;67284;44.782;10.282;2023-06-10T01:45:01;100590.41;;;20.47
26158;BMP280;67284;44.782;10.282;2023-06-10T01:49:53;100592.16;;;20.46
26158;BMP280;67284;44.782;10.282;2023-06-10T01:54:45;100589.63;;;20.45
26158;BMP280;67284;44.782;10.282;2023-06-10T01:59:37;100589.72;;;20.43
26158;BMP280;67284;44.782;10.282;2023-06-10T02:04:29;100590.56;;;20.44
26158;BMP280;67284;44.782;10.282;2023-06-10T02:09:23;100593.25;;;20.42
26158;BMP280;67284;44.782;10.282;2023-06-10T02:14:15;100589.72;;;20.43
26158;BMP280;67284;44.782;10.282;2023-06-10T02:19:06;100597.72;;;20.40
26158;BMP280;67284;44.782;10.282;2023-06-10T02:23:59;100595.25;;;20.38
26158;BMP280;67284;44.782;10.282;2023-06-10T02:28:51;100598.63;;;20.39
26158;BMP280;67284;44.782;10.282;2023-06-10T02:33:44;100595.94;;;20.41
26158;BMP280;67284;44.782;10.282;2023-06-10T02:38:36;100593.31;;;20.41
26158;BMP280;67284;44.782;10.282;2023-06-10T02:43:28;100595.09;;;20.40
26158;BMP280;67284;44.782;10.282;2023-06-10T02:48:21;100595.09;;;20.40
26158;BMP280;67284;44.782;10.282;2023-06-10T02:53:13;100596.88;;;20.40
26158;BMP280;67284;44.782;10.282;2023-06-10T02:58:09;100593.41;;;20.39
26158;BMP280;67284;44.782;10.282;2023-06-10T03:03:01;100594.28;;;20.40
26158;BMP280;67284;44.782;10.282;2023-06-10T03:08:00;100604.72;;;20.40
26158;BMP280;67284;44.782;10.282;2023-06-10T03:12:54;100604.03;;;20.37
26158;BMP280;67284;44.782;10.282;2023-06-10T03:17:48;100604.03;;;20.37
26158;BMP280;67284;44.782;10.282;2023-06-10T03:22:40;100608.41;;;20.36
26158;BMP280;67284;44.782;10.282;2023-06-10T03:27:34;100612.72;;;20.37
26158;BMP280;67284;44.782;10.282;2023-06-10T03:32:31;100622.22;;;20.38
26158;BMP280;67284;44.782;10.282;2023-06-10T03:37:25;100607.50;;;20.37
26158;BMP280;67284;44.782;10.282;2023-06-10T03:42:17;100607.50;;;20.37
26158;BMP280;67284;44.782;10.282;2023-06-10T03:47:10;100597.09;;;20.36
26158;BMP280;67284;44.782;10.282;2023-06-10T03:52:02;100618.88;;;20.36
26158;BMP280;67284;44.782;10.282;2023-06-10T03:56:54;100623.19;;;20.37
26158;BMP280;67284;44.782;10.282;2023-06-10T04:01:47;100623.22;;;20.36
26158;BMP280;67284;44.782;10.282;2023-06-10T04:06:39;100631.03;;;20.37
26158;BMP280;67284;44.782;10.282;2023-06-10T04:11:31;100631.03;;;20.37
26158;BMP280;67284;44.782;10.282;2023-06-10T04:16:24;100628.44;;;20.36
26158;BMP280;67284;44.782;10.282;2023-06-10T04:21:16;100622.31;;;20.37
26158;BMP280;67284;44.782;10.282;2023-06-10T04:26:10;100618.00;;;20.36
26158;BMP280;67284;44.782;10.282;2023-06-10T04:31:04;100624.09;;;20.36
26158;BMP280;67284;44.782;10.282;2023-06-10T04:35:56;100624.09;;;20.36
26158;BMP280;67284;44.782;10.282;2023-06-10T04:40:52;100625.78;;;20.37
26158;BMP280;67284;44.782;10.282;2023-06-10T04:45:46;100631.03;;;20.37
26158;BMP280;67284;44.782;10.282;2023-06-10T04:50:39;100631.06;;;20.36
26158;BMP280;67284;44.782;10.282;2023-06-10T04:55:30;100637.16;;;20.36
26158;BMP280;67284;44.782;10.282;2023-06-10T05:00:23;100639.75;;;20.36
26158;BMP280;67284;44.782;10.282;2023-06-10T05:05:18;100625.09;;;20.34
26158;BMP280;67284;44.782;10.282;2023-06-10T05:10:10;100626.78;;;20.35
26158;BMP280;67284;44.782;10.282;2023-06-10T05:15:03;100627.63;;;20.35
26158;BMP280;67284;44.782;10.282;2023-06-10T05:19:55;100617.25;;;20.34
26158;BMP280;67284;44.782;10.282;2023-06-10T05:24:47;100622.38;;;20.35
26158;BMP280;67284;44.782;10.282;2023-06-10T05:29:39;100617.16;;;20.35
26158;BMP280;67284;44.782;10.282;2023-06-10T05:34:32;100624.09;;;20.36
26158;BMP280;67284;44.782;10.282;2023-06-10T05:39:24;100630.16;;;20.37
26158;BMP280;67284;44.782;10.282;2023-06-10T05:44:15;100631.06;;;20.36
26158;BMP280;67284;44.782;10.282;2023-06-10T05:49:07;100629.41;;;20.35
26158;BMP280;67284;44.782;10.282;2023-06-10T05:53:59;100633.69;;;20.36
26158;BMP280;67284;44.782;10.282;2023-06-10T05:58:51;100631.03;;;20.37
26158;BMP280;67284;44.782;10.282;2023-06-10T06:03:43;100637.06;;;20.38
26158;BMP280;67284;44.782;10.282;2023-06-10T06:08:35;100643.13;;;20.38
26158;BMP280;67284;44.782;10.282;2023-06-10T06:13:27;100631.78;;;20.39
26158;BMP280;67284;44.782;10.282;2023-06-10T06:18:19;100635.22;;;20.39
26158;BMP280;67284;44.782;10.282;2023-06-10T06:23:11;100640.44;;;20.39
26158;BMP280;67284;44.782;10.282;2023-06-10T06:28:03;100640.53;;;20.38
26158;BMP280;67284;44.782;10.282;2023-06-10T06:32:54;100644.06;;;20.37
26158;BMP280;67284;44.782;10.282;2023-06-10T06:37:46;100645.75;;;20.38
26158;BMP280;67284;44.782;10.282;2023-06-10T06:42:44;100647.53;;;20.38
26158;BMP280;67284;44.782;10.282;2023-06-10T06:47:45;100644.06;;;20.37
26158;BMP280;67284;44.782;10.282;2023-06-10T06:52:38;100654.53;;;20.37
26158;BMP280;67284;44.782;10.282;2023-06-10T06:57:29;100651.91;;;20.37
26158;BMP280;67284;44.782;10.282;2023-06-10T07:02:21;100651.91;;;20.37
26158;BMP280;67284;44.782;10.282;2023-06-10T07:07:13;100657.16;;;20.37
26158;BMP280;67284;44.782;10.282;2023-06-10T07:12:05;100650.22;;;20.36
26158;BMP280;67284;44.782;10.282;2023-06-10T07:16:57;100654.59;;;20.36
26158;BMP280;67284;44.782;10.282;2023-06-10T07:21:49;100650.31;;;20.35
26158;BMP280;67284;44.782;10.282;2023-06-10T07:26:41;100655.59;;;20.33
26158;BMP280;67284;44.782;10.282;2023-06-10T07:31:33;100652.13;;;20.33
26158;BMP280;67284;44.782;10.282;2023-06-10T07:36:25;100658.22;;;20.33
26158;BMP280;67284;44.782;10.282;2023-06-10T07:41:18;100664.34;;;20.32
26158;BMP280;67284;44.782;10.282;2023-06-10T07:46:11;100669.59;;;20.32
26158;BMP280;67284;44.782;10.282;2023-06-10T07:51:03;100658.44;;;20.29
26158;BMP280;67284;44.782;10.282;2023-06-10T07:55:55;100654.97;;;20.28
26158;BMP280;67284;44.782;10.282;2023-06-10T08:00:47;100654.22;;;20.26
26158;BMP280;67284;44.782;10.282;2023-06-10T08:05:39;100657.75;;;20.25
26158;BMP280;67284;44.782;10.282;2023-06-10T08:10:31;100652.59;;;20.24
26158;BMP280;67284;44.782;10.282;2023-06-10T08:15:23;100654.28;;;20.25
26158;BMP280;67284;44.782;10.282;2023-06-10T08:20:15;100641.22;;;20.25
26158;BMP280;67284;44.782;10.282;2023-06-10T08:25:10;100652.50;;;20.25
26158;BMP280;67284;44.782;10.282;2023-06-10T08:30:02;100654.28;;;20.25
26158;BMP280;67284;44.782;10.282;2023-06-10T08:34:54;100649.91;;;20.25
26158;BMP280;67284;44.782;10.282;2023-06-10T08:39:46;100655.13;;;20.25
26158;BMP280;67284;44.782;10.282;2023-06-10T08:44:39;100651.69;;;20.25
26158;BMP280;67284;44.782;10.282;2023-06-10T08:49:34;100659.59;;;20.23
26158;BMP280;67284;44.782;10.282;2023-06-10T08:54:33;100651.75;;;20.23
26158;BMP280;67284;44.782;10.282;2023-06-10T08:59:29;100661.25;;;20.24
26158;BMP280;67284;44.782;10.282;2023-06-10T09:04:21;100649.97;;;20.24
26158;BMP280;67284;44.782;10.282;2023-06-10T09:09:15;100657.81;;;20.24
26158;BMP280;67284;44.782;10.282;2023-06-10T09:14:07;100640.38;;;20.24
26158;BMP280;67284;44.782;10.282;2023-06-10T09:18:59;100652.50;;;20.25
26158;BMP280;67284;44.782;10.282;2023-06-10T09:23:51;100655.97;;;20.26
26158;BMP280;67284;44.782;10.282;2023-06-10T09:28:44;100659.53;;;20.25
26158;BMP280;67284;44.782;10.282;2023-06-10T09:33:39;100660.34;;;20.25
26158;BMP280;67284;44.782;10.282;2023-06-10T09:38:34;100662.13;;;20.25
26158;BMP280;67284;44.782;10.282;2023-06-10T09:43:42;100649.16;;;20.23
26158;BMP280;67284;44.782;10.282;2023-06-10T09:48:35;100668.19;;;20.25
26158;BMP280;67284;44.782;10.282;2023-06-10T09:53:33;100666.50;;;20.24
26158;BMP280;67284;44.782;10.282;2023-06-10T09:58:36;100670.81;;;20.25
26158;BMP280;67284;44.782;10.282;2023-06-10T10:03:28;100660.28;;;20.27
26158;BMP280;67284;44.782;10.282;2023-06-10T10:08:20;100655.88;;;20.27
26158;BMP280;67284;44.782;10.282;2023-06-10T10:13:12;100661.09;;;20.27
26158;BMP280;67284;44.782;10.282;2023-06-10T10:18:07;100657.59;;;20.28
26158;BMP280;67284;44.782;10.282;2023-06-10T10:23:02;100660.03;;;20.31
26158;BMP280;67284;44.782;10.282;2023-06-10T10:28:12;100652.03;;;20.34
26158;BMP280;67284;44.782;10.282;2023-06-10T10:33:18;100645.16;;;20.33
26158;BMP280;67284;44.782;10.282;2023-06-10T10:38:11;100653.81;;;20.34
26158;BMP280;67284;44.782;10.282;2023-06-10T10:43:03;100651.22;;;20.34
26158;BMP280;67284;44.782;10.282;2023-06-10T10:47:55;100666.88;;;20.34
26158;BMP280;67284;44.782;10.282;2023-06-10T10:52:59;100652.03;;;20.34
26158;BMP280;67284;44.782;10.282;2023-06-10T10:58:05;100651.13;;;20.35
26158;BMP280;67284;44.782;10.282;2023-06-10T11:02:59;100644.06;;;20.37
26158;BMP280;67284;44.782;10.282;2023-06-10T11:07:55;100645.59;;;20.41
26158;BMP280;67284;44.782;10.282;2023-06-10T11:12:51;100641.00;;;20.46
26158;BMP280;67284;44.782;10.282;2023-06-10T11:18:06;100640.22;;;20.44
26158;BMP280;67284;44.782;10.282;2023-06-10T11:23:02;100639.84;;;20.51
26158;BMP280;67284;44.782;10.282;2023-06-10T11:27:53;100636.31;;;20.52
26158;BMP280;67284;44.782;10.282;2023-06-10T11:32:50;100636.75;;;20.60
26158;BMP280;67284;44.782;10.282;2023-06-10T11:37:43;100625.38;;;20.61
26158;BMP280;67284;44.782;10.282;2023-06-10T11:42:43;100628.00;;;20.61
26158;BMP280;67284;44.782;10.282;2023-06-10T11:47:35;100621.84;;;20.62
26158;BMP280;67284;44.782;10.282;2023-06-10T11:52:29;100618.19;;;20.65
26158;BMP280;67284;44.782;10.282;2023-06-10T11:57:22;100621.69;;;20.65
26158;BMP280;67284;44.782;10.282;2023-06-10T12:02:17;100613.91;;;20.64
26158;BMP280;67284;44.782;10.282;2023-06-10T12:07:17;100609.38;;;20.67
26158;BMP280;67284;44.782;10.282;2023-06-10T12:12:10;100604.22;;;20.66
26158;BMP280;67284;44.782;10.282;2023-06-10T12:17:04;100602.25;;;20.71
26158;BMP280;67284;44.782;10.282;2023-06-10T12:21:56;100594.75;;;20.80
26158;BMP280;67284;44.782;10.282;2023-06-10T12:26:48;100591.75;;;20.88
26158;BMP280;67284;44.782;10.282;2023-06-10T12:36:50;100582.47;;;20.82
26158;BMP280;67284;44.782;10.282;2023-06-10T12:41:49;100588.34;;;20.86
26158;BMP280;67284;44.782;10.282;2023-06-10T12:46:42;100580.75;;;20.81
26158;BMP280;67284;44.782;10.282;2023-06-10T12:51:34;100569.13;;;20.87
26158;BMP280;67284;44.782;10.282;2023-06-10T12:56:28;100562.47;;;20.96
26158;BMP280;67284;44.782;10.282;2023-06-10T13:01:20;100554.47;;;20.99
26158;BMP280;67284;44.782;10.282;2023-06-10T13:06:12;100556.41;;;20.96
26158;BMP280;67284;44.782;10.282;2023-06-10T13:11:04;100565.25;;;20.93
26158;BMP280;67284;44.782;10.282;2023-06-10T13:15:56;100562.41;;;20.98
26158;BMP280;67284;44.782;10.282;2023-06-10T13:20:48;100555.31;;;21.00
26158;BMP280;67284;44.782;10.282;2023-06-10T13:25:40;100559.34;;;21.05
26158;BMP280;67284;44.782;10.282;2023-06-10T13:30:32;100549.50;;;21.10
26158;BMP280;67284;44.782;10.282;2023-06-10T13:35:24;100537.75;;;21.17
26158;BMP280;67284;44.782;10.282;2023-06-10T13:40:16;100536.41;;;21.26
26158;BMP280;67284;44.782;10.282;2023-06-10T13:45:08;100528.13;;;21.33
26158;BMP280;67284;44.782;10.282;2023-06-10T13:50:01;100520.38;;;21.32
26158;BMP280;67284;44.782;10.282;2023-06-10T13:54:53;100525.69;;;21.30
26158;BMP280;67284;44.782;10.282;2023-06-10T13:59:45;100517.00;;;21.30
26158;BMP280;67284;44.782;10.282;2023-06-10T14:04:37;100517.19;;;21.27
26158;BMP280;67284;44.782;10.282;2023-06-10T14:09:29;100516.00;;;21.32
26158;BMP280;67284;44.782;10.282;2023-06-10T14:14:21;100506.94;;;21.38
26158;BMP280;67284;44.782;10.282;2023-06-10T14:19:14;100502.84;;;21.49
26158;BMP280;67284;44.782;10.282;2023-06-10T14:24:06;100496.56;;;21.51
26158;BMP280;67284;44.782;10.282;2023-06-10T14:28:58;100486.00;;;21.53
26158;BMP280;67284;44.782;10.282;2023-06-10T14:33:50;100487.28;;;21.61
26158;BMP280;67284;44.782;10.282;2023-06-10T14:38:42;100486.13;;;21.65
26158;BMP280;67284;44.782;10.282;2023-06-10T14:43:33;100489.94;;;21.60
26158;BMP280;67284;44.782;10.282;2023-06-10T14:48:25;100484.72;;;21.60
26158;BMP280;67284;44.782;10.282;2023-06-10T14:53:18;100485.22;;;21.66
26158;BMP280;67284;44.782;10.282;2023-06-10T14:58:10;100479.50;;;21.74
26158;BMP280;67284;44.782;10.282;2023-06-10T15:03:02;100470.91;;;21.72
26158;BMP280;67284;44.782;10.282;2023-06-10T15:07:54;100462.88;;;21.75
26158;BMP280;67284;44.782;10.282;2023-06-10T15:12:46;100454.09;;;21.76
26158;BMP280;67284;44.782;10.282;2023-06-10T15:17:38;100450.72;;;21.74
26158;BMP280;67284;44.782;10.282;2023-06-10T15:22:30;100450.91;;;21.71
26158;BMP280;67284;44.782;10.282;2023-06-10T15:27:25;100449.22;;;21.70
26158;BMP280;67284;44.782;10.282;2023-06-10T15:32:16;100438.56;;;21.73
26158;BMP280;67284;44.782;10.282;2023-06-10T15:37:09;100433.84;;;21.64
26158;BMP280;67284;44.782;10.282;2023-06-10T15:42:01;100426.97;;;21.63
26158;BMP280;67284;44.782;10.282;2023-06-10T15:46:54;100425.81;;;21.67
26158;BMP280;67284;44.782;10.282;2023-06-10T15:51:46;100420.50;;;21.68
26158;BMP280;67284;44.782;10.282;2023-06-10T15:56:41;100415.19;;;21.70
26158;BMP280;67284;44.782;10.282;2023-06-10T16:01:33;100419.66;;;21.68
26158;BMP280;67284;44.782;10.282;2023-06-10T16:06:25;100417.13;;;21.66
26158;BMP280;67284;44.782;10.282;2023-06-10T16:11:17;100419.66;;;21.68
26158;BMP280;67284;44.782;10.282;2023-06-10T16:16:09;100412.38;;;21.73
26158;BMP280;67284;44.782;10.282;2023-06-10T16:21:01;100421.06;;;21.73
26158;BMP280;67284;44.782;10.282;2023-06-10T16:25:53;100410.50;;;21.75
26158;BMP280;67284;44.782;10.282;2023-06-10T16:30:44;100408.63;;;21.77
26158;BMP280;67284;44.782;10.282;2023-06-10T16:35:36;100406.00;;;21.77
26158;BMP280;67284;44.782;10.282;2023-06-10T16:40:28;100412.94;;;21.78
26158;BMP280;67284;44.782;10.282;2023-06-10T16:45:20;100406.78;;;21.79
26158;BMP280;67284;44.782;10.282;2023-06-10T16:50:12;100405.28;;;21.75
26158;BMP280;67284;44.782;10.282;2023-06-10T16:55:04;100408.81;;;21.74
26158;BMP280;67284;44.782;10.282;2023-06-10T16:59:57;100409.78;;;21.73
26158;BMP280;67284;44.782;10.282;2023-06-10T17:04:48;100412.38;;;21.73
26158;BMP280;67284;44.782;10.282;2023-06-10T17:09:40;100410.09;;;21.67
26158;BMP280;67284;44.782;10.282;2023-06-10T17:14:32;100416.94;;;21.69
26158;BMP280;67284;44.782;10.282;2023-06-10T17:19:24;100411.72;;;21.69
26158;BMP280;67284;44.782;10.282;2023-06-10T17:24:16;100420.34;;;21.71
26158;BMP280;67284;44.782;10.282;2023-06-10T17:29:08;100417.81;;;21.70
26158;BMP280;67284;44.782;10.282;2023-06-10T17:34:00;100418.16;;;21.64
26158;BMP280;67284;44.782;10.282;2023-06-10T17:38:52;100416.41;;;21.64
26158;BMP280;67284;44.782;10.282;2023-06-10T17:43:44;100433.84;;;21.64
26158;BMP280;67284;44.782;10.282;2023-06-10T17:48:36;100428.81;;;21.61
26158;BMP280;67284;44.782;10.282;2023-06-10T17:53:29;100441.16;;;21.59
26158;BMP280;67284;44.782;10.282;2023-06-10T17:58:20;100438.44;;;21.60
26158;BMP280;67284;44.782;10.282;2023-06-10T18:03:12;100448.06;;;21.60
26158;BMP280;67284;44.782;10.282;2023-06-10T18:08:05;100452.56;;;21.58
26158;BMP280;67284;44.782;10.282;2023-06-10T18:12:56;100456.09;;;21.57
26158;BMP280;67284;44.782;10.282;2023-06-10T18:17:48;100459.81;;;21.53
26158;BMP280;67284;44.782;10.282;2023-06-10T18:22:40;100465.13;;;21.51
26158;BMP280;67284;44.782;10.282;2023-06-10T18:27:33;100469.72;;;21.48
26158;BMP280;67284;44.782;10.282;2023-06-10T18:32:25;100471.56;;;21.46
26158;BMP280;67284;44.782;10.282;2023-06-10T18:37:17;100475.28;;;21.42
26158;BMP280;67284;44.782;10.282;2023-06-10T18:42:09;100487.59;;;21.40
26158;BMP280;67284;44.782;10.282;2023-06-10T18:47:01;100494.78;;;21.37
26158;BMP280;67284;44.782;10.282;2023-06-10T18:51:53;100503.75;;;21.33
26158;BMP280;67284;44.782;10.282;2023-06-10T18:56:45;100511.78;;;21.30
26158;BMP280;67284;44.782;10.282;2023-06-10T19:01:37;100518.94;;;21.26
26158;BMP280;67284;44.782;10.282;2023-06-10T19:06:29;100517.50;;;21.21
26158;BMP280;67284;44.782;10.282;2023-06-10T19:11:21;100524.59;;;21.19
26158;BMP280;67284;44.782;10.282;2023-06-10T19:16:13;100519.53;;;21.16
26158;BMP280;67284;44.782;10.282;2023-06-10T19:21:05;100535.31;;;21.14
26158;BMP280;67284;44.782;10.282;2023-06-10T19:25:58;100538.94;;;21.12
26158;BMP280;67284;44.782;10.282;2023-06-10T19:30:51;100544.25;;;21.10
26158;BMP280;67284;44.782;10.282;2023-06-10T19:35:43;100567.88;;;21.09
26158;BMP280;67284;44.782;10.282;2023-06-10T19:40:35;100570.69;;;21.06
26158;BMP280;67284;44.782;10.282;2023-06-10T19:45:27;100583.84;;;21.04
26158;BMP280;67284;44.782;10.282;2023-06-10T19:50:19;100588.28;;;21.02
26158;BMP280;67284;44.782;10.282;2023-06-10T19:55:11;100592.78;;;21.00
26158;BMP280;67284;44.782;10.282;2023-06-10T20:00:06;100593.78;;;20.98
26158;BMP280;67284;44.782;10.282;2023-06-10T20:05:05;100606.03;;;20.97
26158;BMP280;67284;44.782;10.282;2023-06-10T20:09:57;100607.84;;;20.95
26158;BMP280;67284;44.782;10.282;2023-06-10T20:14:49;100601.88;;;20.93
26158;BMP280;67284;44.782;10.282;2023-06-10T20:19:41;100607.09;;;20.93
26158;BMP280;67284;44.782;10.282;2023-06-10T20:24:33;100600.34;;;20.90
26158;BMP280;67284;44.782;10.282;2023-06-10T20:29:25;100601.25;;;20.89
26158;BMP280;67284;44.782;10.282;2023-06-10T20:34:17;100604.81;;;20.88
26158;BMP280;67284;44.782;10.282;2023-06-10T20:39:11;100591.75;;;20.88
26158;BMP280;67284;44.782;10.282;2023-06-10T20:44:03;100585.66;;;20.87
26158;BMP280;67284;44.782;10.282;2023-06-10T20:48:55;100584.81;;;20.87
26158;BMP280;67284;44.782;10.282;2023-06-10T20:53:47;100588.34;;;20.86
26158;BMP280;67284;44.782;10.282;2023-06-10T20:58:39;100597.16;;;20.85
26158;BMP280;67284;44.782;10.282;2023-06-10T21:03:32;100592.84;;;20.84
26158;BMP280;67284;44.782;10.282;2023-06-10T21:08:24;100593.75;;;20.83
26158;BMP280;67284;44.782;10.282;2023-06-10T21:13:18;100589.44;;;20.82
26158;BMP280;67284;44.782;10.282;2023-06-10T21:18:10;100593.81;;;20.81
26158;BMP280;67284;44.782;10.282;2023-06-10T21:23:02;100597.34;;;20.80
26158;BMP280;67284;44.782;10.282;2023-06-10T21:27:54;100591.38;;;20.78
26158;BMP280;67284;44.782;10.282;2023-06-10T21:32:46;100596.69;;;20.77
26158;BMP280;67284;44.782;10.282;2023-06-10T21:37:38;100590.69;;;20.75
26158;BMP280;67284;44.782;10.282;2023-06-10T21:42:30;100587.31;;;20.73
26158;BMP280;67284;44.782;10.282;2023-06-10T21:47:22;100585.63;;;20.72
26158;BMP280;67284;44.782;10.282;2023-06-10T21:52:14;100597.03;;;20.71
26158;BMP280;67284;44.782;10.282;2023-06-10T21:57:05;100601.44;;;20.69
26158;BMP280;67284;44.782;10.282;2023-06-10T22:01:58;100611.06;;;20.68
26158;BMP280;67284;44.782;10.282;2023-06-10T22:06:49;100621.50;;;20.68
26158;BMP280;67284;44.782;10.282;2023-06-10T22:11:41;100616.44;;;20.65
26158;BMP280;67284;44.782;10.282;2023-06-10T22:16:34;100616.38;;;20.67
26158;BMP280;67284;44.782;10.282;2023-06-10T22:21:26;100620.72;;;20.66
26158;BMP280;67284;44.782;10.282;2023-06-10T22:26:18;100617.28;;;20.66
26158;BMP280;67284;44.782;10.282;2023-06-10T22:31:10;100626.03;;;20.65
26158;BMP280;67284;44.782;10.282;2023-06-10T22:36:02;100623.44;;;20.65
26158;BMP280;67284;44.782;10.282;2023-06-10T22:40:54;100619.91;;;20.66
26158;BMP280;67284;44.782;10.282;2023-06-10T22:45:46;100610.53;;;20.62
26158;BMP280;67284;44.782;10.282;2023-06-10T22:50:38;100606.28;;;20.59
26158;BMP280;67284;44.782;10.282;2023-06-10T22:55:29;100614.22;;;20.58
26158;BMP280;67284;44.782;10.282;2023-06-10T23:00:21;100630.75;;;20.58
26158;BMP280;67284;44.782;10.282;2023-06-10T23:05:13;100645.56;;;20.58
26158;BMP280;67284;44.782;10.282;2023-06-10T23:10:06;100651.69;;;20.58
26158;BMP280;67284;44.782;10.282;2023-06-10T23:14:58;100651.75;;;20.57
26158;BMP280;67284;44.782;10.282;2023-06-10T23:19:50;100652.66;;;20.56
26158;BMP280;67284;44.782;10.282;2023-06-10T23:24:42;100657.06;;;20.55
26158;BMP280;67284;44.782;10.282;2023-06-10T23:29:34;100650.97;;;20.55
26158;BMP280;67284;44.782;10.282;2023-06-10T23:34:46;100645.75;;;20.55
26158;BMP280;67284;44.782;10.282;2023-06-10T23:39:38;100643.03;;;20.56
26158;BMP280;67284;44.782;10.282;2023-06-10T23:44:30;100643.03;;;20.56
26158;BMP280;67284;44.782;10.282;2023-06-10T23:49:22;100643.91;;;20.57
26158;BMP280;67284;44.782;10.282;2023-06-10T23:54:14;100635.13;;;20.58
26158;BMP280;67284;44.782;10.282;2023-06-10T23:59:06;100632.00;;;20.51
